Accueil
METAR-TAF:

METAR-TAF

Aéroports :

Saragosse, Espagne

Aéroport de Saragosse

latitude: 41-40N, longitude: 001-01W, altitude: 263 m

Observation

Le bulletin a été fait il y a 24 minutes, à 21:00 UTC
Vent 20 kt de ouest/nord-ouest
Température 9°C
Humidité 53%
Pression 1014 hPa
Visibilité 10 km ou plus
Quelques nuages à une hauteur de 5000 ft
Nuages fragmentés à une hauteur de 7500 ft

METAR: LEZG 262100Z 30020KT 9999 FEW050 BKN075 09/M00 Q1014

Heure: 23:24 (21:24 UTC)

Prévision

Le bulletin a été fait il y a 4 heures et 24 minutes, à 17:00 UTC
Prévision valable du 26 à 18 UTC au 27 à 18 UTC
Vent 17 kt de nord-ouest
Visibilité 10 km ou plus
Nuages fragmentés à une hauteur de 6000 ft
Temporairement
du 26 à 18 UTC au 26 à 24 UTC
Vent 20 kt de nord-ouest avec des rafales jusqu'à 30 kt

TAF: LEZG 261700Z 2618/2718 31017KT 9999 BKN060 TX16/2713Z TN07/2706Z TEMPO 2618/2624 31020G30KT

Observations et prévisions météorologiques de plus de 4000 aéroports (messages METAR et TAF).

Les stations disponibles sont représentées par des disques jaunes et rouges sur la carte.

Passer la souris dessus pour voir le nom de la station.

Cliquer dessus pour voir les observations et prévisions météorologiques.

Pour changer de carte: cliquez sur les boutons verts avec une croix noire pour zoomer, sur le bouton vert avec un tiret pour effectuer un zoom arrière, ou sur les flèches vertes pour les cartes adjacentes.


METAR-TAF: